sensor_id;sensor_type;location;lat;lon;timestamp;pressure;altitude;pressure_sealevel;temperature;humidity
72308;BME280;60257;42.638;23.376;2022-11-25T00:01:23;94321.66;;;5.09;66.44
72308;BME280;60257;42.638;23.376;2022-11-25T00:03:50;94331.44;;;5.10;65.99
72308;BME280;60257;42.638;23.376;2022-11-25T00:08:43;94337.00;;;5.14;66.10
72308;BME280;60257;42.638;23.376;2022-11-25T00:11:10;94342.44;;;5.14;65.88
72308;BME280;60257;42.638;23.376;2022-11-25T00:13:36;94357.00;;;5.18;66.03
72308;BME280;60257;42.638;23.376;2022-11-25T00:16:14;94353.94;;;5.19;65.78
72308;BME280;60257;42.638;23.376;2022-11-25T00:18:47;94343.72;;;5.16;65.78
72308;BME280;60257;42.638;23.376;2022-11-25T00:21:16;94351.56;;;5.26;65.35
72308;BME280;60257;42.638;23.376;2022-11-25T00:23:42;94343.56;;;5.30;65.12
72308;BME280;60257;42.638;23.376;2022-11-25T00:26:13;94350.09;;;5.20;65.34
72308;BME280;60257;42.638;23.376;2022-11-25T00:28:40;94335.25;;;5.09;65.09
72308;BME280;60257;42.638;23.376;2022-11-25T00:31:12;94352.81;;;5.12;65.78
72308;BME280;60257;42.638;23.376;2022-11-25T00:33:38;94348.34;;;5.07;65.86
72308;BME280;60257;42.638;23.376;2022-11-25T00:36:06;94364.19;;;5.14;65.77
72308;BME280;60257;42.638;23.376;2022-11-25T00:38:34;94347.06;;;5.13;66.14
72308;BME280;60257;42.638;23.376;2022-11-25T00:40:59;94362.13;;;5.11;66.25
72308;BME280;60257;42.638;23.376;2022-11-25T00:43:43;94349.78;;;5.13;66.58
72308;BME280;60257;42.638;23.376;2022-11-25T00:46:27;94352.50;;;5.13;66.63
72308;BME280;60257;42.638;23.376;2022-11-25T00:48:53;94361.78;;;5.12;66.87
72308;BME280;60257;42.638;23.376;2022-11-25T00:51:18;94347.56;;;5.07;67.15
72308;BME280;60257;42.638;23.376;2022-11-25T00:53:44;94367.38;;;5.07;67.05
72308;BME280;60257;42.638;23.376;2022-11-25T00:56:09;94365.47;;;5.08;67.22
72308;BME280;60257;42.638;23.376;2022-11-25T00:58:38;94365.94;;;5.27;67.03
72308;BME280;60257;42.638;23.376;2022-11-25T01:01:03;94376.97;;;5.04;66.86
72308;BME280;60257;42.638;23.376;2022-11-25T01:03:29;94364.34;;;5.00;67.24
72308;BME280;60257;42.638;23.376;2022-11-25T01:05:54;94357.16;;;4.95;67.42
72308;BME280;60257;42.638;23.376;2022-11-25T01:08:20;94355.56;;;5.03;67.49
72308;BME280;60257;42.638;23.376;2022-11-25T01:10:45;94353.47;;;4.91;67.60
72308;BME280;60257;42.638;23.376;2022-11-25T01:13:10;94347.09;;;4.87;67.38
72308;BME280;60257;42.638;23.376;2022-11-25T01:15:36;94356.38;;;4.95;67.64
72308;BME280;60257;42.638;23.376;2022-11-25T01:18:01;94368.34;;;4.94;67.49
72308;BME280;60257;42.638;23.376;2022-11-25T01:20:27;94361.47;;;4.96;67.24
72308;BME280;60257;42.638;23.376;2022-11-25T01:22:52;94349.00;;;5.04;67.07
72308;BME280;60257;42.638;23.376;2022-11-25T01:25:18;94340.84;;;5.13;66.64
72308;BME280;60257;42.638;23.376;2022-11-25T01:27:43;94353.47;;;5.00;67.24
72308;BME280;60257;42.638;23.376;2022-11-25T01:30:09;94359.09;;;4.95;67.62
72308;BME280;60257;42.638;23.376;2022-11-25T01:32:35;94356.81;;;4.97;67.13
72308;BME280;60257;42.638;23.376;2022-11-25T01:35:00;94359.72;;;5.00;67.29
72308;BME280;60257;42.638;23.376;2022-11-25T01:37:26;94342.59;;;4.91;67.50
72308;BME280;60257;42.638;23.376;2022-11-25T01:39:51;94344.69;;;5.03;66.87
72308;BME280;60257;42.638;23.376;2022-11-25T01:42:16;94348.19;;;5.12;66.62
72308;BME280;60257;42.638;23.376;2022-11-25T01:44:43;94345.31;;;5.17;66.26
72308;BME280;60257;42.638;23.376;2022-11-25T01:47:13;94341.81;;;5.17;65.97
72308;BME280;60257;42.638;23.376;2022-11-25T01:54:50;94316.03;;;5.31;64.48
72308;BME280;60257;42.638;23.376;2022-11-25T01:57:23;94304.38;;;5.22;64.43
72308;BME280;60257;42.638;23.376;2022-11-25T01:59:51;94328.34;;;5.29;64.66
72308;BME280;60257;42.638;23.376;2022-11-25T02:02:19;94311.72;;;5.22;64.74
72308;BME280;60257;42.638;23.376;2022-11-25T02:04:46;94319.41;;;5.28;64.55
72308;BME280;60257;42.638;23.376;2022-11-25T02:07:39;94333.94;;;5.50;63.32
72308;BME280;60257;42.638;23.376;2022-11-25T02:10:11;94310.91;;;5.38;63.20
72308;BME280;60257;42.638;23.376;2022-11-25T02:12:40;94336.50;;;5.37;63.54
72308;BME280;60257;42.638;23.376;2022-11-25T02:15:06;94334.75;;;5.41;63.17
72308;BME280;60257;42.638;23.376;2022-11-25T02:17:33;94333.31;;;5.35;63.31
72308;BME280;60257;42.638;23.376;2022-11-25T02:20:00;94342.91;;;5.33;63.57
72308;BME280;60257;42.638;23.376;2022-11-25T02:22:37;94340.50;;;5.40;63.52
72308;BME280;60257;42.638;23.376;2022-11-25T02:25:19;94341.31;;;5.40;63.08
72308;BME280;60257;42.638;23.376;2022-11-25T02:27:50;94338.41;;;5.37;62.86
72308;BME280;60257;42.638;23.376;2022-11-25T02:30:16;94352.50;;;5.39;62.44
72308;BME280;60257;42.638;23.376;2022-11-25T02:32:44;94358.56;;;5.36;62.85
72308;BME280;60257;42.638;23.376;2022-11-25T02:35:46;94359.53;;;5.40;62.66
72308;BME280;60257;42.638;23.376;2022-11-25T02:38:27;94343.88;;;5.37;62.49
72308;BME280;60257;42.638;23.376;2022-11-25T02:43:29;94356.34;;;5.47;62.36
72308;BME280;60257;42.638;23.376;2022-11-25T02:46:03;94360.00;;;5.42;61.69
72308;BME280;60257;42.638;23.376;2022-11-25T02:48:31;94354.75;;;5.37;62.17
72308;BME280;60257;42.638;23.376;2022-11-25T02:50:58;94354.59;;;5.25;61.80
72308;BME280;60257;42.638;23.376;2022-11-25T02:53:24;94337.63;;;5.19;62.36
72308;BME280;60257;42.638;23.376;2022-11-25T02:55:49;94365.13;;;5.35;61.45
72308;BME280;60257;42.638;23.376;2022-11-25T02:58:15;94360.66;;;5.30;62.19
72308;BME280;60257;42.638;23.376;2022-11-25T03:00:43;94368.34;;;5.28;62.26
72308;BME280;60257;42.638;23.376;2022-11-25T03:03:09;94361.31;;;5.19;62.92
72308;BME280;60257;42.638;23.376;2022-11-25T03:05:34;94358.59;;;5.10;63.18
72308;BME280;60257;42.638;23.376;2022-11-25T03:08:00;94335.56;;;5.16;63.15
72308;BME280;60257;42.638;23.376;2022-11-25T03:10:25;94372.81;;;5.24;63.49
72308;BME280;60257;42.638;23.376;2022-11-25T03:12:51;94369.78;;;5.17;63.79
72308;BME280;60257;42.638;23.376;2022-11-25T03:15:17;94369.31;;;5.15;64.37
72308;BME280;60257;42.638;23.376;2022-11-25T03:17:42;94368.19;;;5.16;64.46
72308;BME280;60257;42.638;23.376;2022-11-25T03:20:09;94378.25;;;5.07;64.81
72308;BME280;60257;42.638;23.376;2022-11-25T03:22:35;94369.31;;;5.07;64.90
72308;BME280;60257;42.638;23.376;2022-11-25T03:25:00;94373.44;;;5.04;65.27
72308;BME280;60257;42.638;23.376;2022-11-25T03:27:26;94373.94;;;5.06;65.10
72308;BME280;60257;42.638;23.376;2022-11-25T03:29:52;94377.94;;;5.00;65.30
72308;BME280;60257;42.638;23.376;2022-11-25T03:32:17;94389.75;;;5.04;65.74
72308;BME280;60257;42.638;23.376;2022-11-25T03:34:43;94388.47;;;4.93;66.06
72308;BME280;60257;42.638;23.376;2022-11-25T03:37:08;94389.91;;;4.99;66.63
72308;BME280;60257;42.638;23.376;2022-11-25T03:39:34;94394.88;;;4.97;66.43
72308;BME280;60257;42.638;23.376;2022-11-25T03:41:59;94392.81;;;4.94;67.02
72308;BME280;60257;42.638;23.376;2022-11-25T03:44:25;94412.28;;;4.96;67.16
72308;BME280;60257;42.638;23.376;2022-11-25T03:46:50;94403.34;;;4.95;67.28
72308;BME280;60257;42.638;23.376;2022-11-25T03:49:16;94411.94;;;4.80;68.02
72308;BME280;60257;42.638;23.376;2022-11-25T03:51:42;94410.66;;;4.78;68.59
72308;BME280;60257;42.638;23.376;2022-11-25T03:54:08;94395.97;;;4.70;69.06
72308;BME280;60257;42.638;23.376;2022-11-25T03:56:33;94405.69;;;4.62;69.32
72308;BME280;60257;42.638;23.376;2022-11-25T03:58:58;94416.38;;;4.59;69.72
72308;BME280;60257;42.638;23.376;2022-11-25T04:01:24;94419.91;;;4.68;69.63
72308;BME280;60257;42.638;23.376;2022-11-25T04:03:49;94414.91;;;4.53;69.82
72308;BME280;60257;42.638;23.376;2022-11-25T04:06:15;94416.03;;;4.52;70.08
72308;BME280;60257;42.638;23.376;2022-11-25T04:08:43;94421.66;;;4.64;72.94
72308;BME280;60257;42.638;23.376;2022-11-25T04:11:08;94434.47;;;4.72;69.30
72308;BME280;60257;42.638;23.376;2022-11-25T04:13:33;94416.84;;;4.61;69.54
72308;BME280;60257;42.638;23.376;2022-11-25T04:15:59;94432.69;;;4.68;69.56
72308;BME280;60257;42.638;23.376;2022-11-25T04:18:25;94431.09;;;4.67;69.40
72308;BME280;60257;42.638;23.376;2022-11-25T04:20:50;94435.41;;;4.68;69.30
72308;BME280;60257;42.638;23.376;2022-11-25T04:23:16;94428.84;;;4.60;69.26
72308;BME280;60257;42.638;23.376;2022-11-25T04:25:42;94432.03;;;4.62;69.21
72308;BME280;60257;42.638;23.376;2022-11-25T04:28:07;94447.03;;;4.59;69.25
72308;BME280;60257;42.638;23.376;2022-11-25T04:30:33;94442.59;;;4.63;69.31
72308;BME280;60257;42.638;23.376;2022-11-25T04:32:59;94450.25;;;4.61;69.10
72308;BME280;60257;42.638;23.376;2022-11-25T04:35:25;94449.75;;;4.59;68.83
72308;BME280;60257;42.638;23.376;2022-11-25T04:37:51;94451.97;;;4.57;69.37
72308;BME280;60257;42.638;23.376;2022-11-25T04:40:16;94456.25;;;4.50;69.51
72308;BME280;60257;42.638;23.376;2022-11-25T04:42:42;94455.66;;;4.53;69.59
72308;BME280;60257;42.638;23.376;2022-11-25T04:45:10;94471.13;;;4.52;69.46
72308;BME280;60257;42.638;23.376;2022-11-25T04:47:36;94463.00;;;4.52;69.31
72308;BME280;60257;42.638;23.376;2022-11-25T04:50:03;94463.75;;;4.44;69.78
72308;BME280;60257;42.638;23.376;2022-11-25T04:52:29;94474.50;;;4.58;69.33
72308;BME280;60257;42.638;23.376;2022-11-25T04:54:54;94481.19;;;4.52;69.38
72308;BME280;60257;42.638;23.376;2022-11-25T04:57:20;94483.47;;;4.58;69.21
72308;BME280;60257;42.638;23.376;2022-11-25T04:59:46;94486.00;;;4.55;69.19
72308;BME280;60257;42.638;23.376;2022-11-25T05:04:43;94494.00;;;4.60;69.12
72308;BME280;60257;42.638;23.376;2022-11-25T05:07:10;94503.22;;;4.50;69.42
72308;BME280;60257;42.638;23.376;2022-11-25T05:09:36;94492.22;;;4.47;69.85
72308;BME280;60257;42.638;23.376;2022-11-25T05:12:02;94498.91;;;4.49;69.59
72308;BME280;60257;42.638;23.376;2022-11-25T05:14:28;94509.66;;;4.54;69.08
72308;BME280;60257;42.638;23.376;2022-11-25T05:16:53;94525.00;;;4.59;69.58
72308;BME280;60257;42.638;23.376;2022-11-25T05:19:19;94495.38;;;4.40;69.40
72308;BME280;60257;42.638;23.376;2022-11-25T05:21:44;94509.16;;;4.52;69.09
72308;BME280;60257;42.638;23.376;2022-11-25T05:24:10;94506.75;;;4.51;68.79
72308;BME280;60257;42.638;23.376;2022-11-25T05:26:35;94494.56;;;4.40;68.57
72308;BME280;60257;42.638;23.376;2022-11-25T05:29:01;94510.91;;;4.48;68.67
72308;BME280;60257;42.638;23.376;2022-11-25T05:31:26;94514.28;;;4.54;68.18
72308;BME280;60257;42.638;23.376;2022-11-25T05:33:52;94519.72;;;4.54;67.53
72308;BME280;60257;42.638;23.376;2022-11-25T05:36:17;94553.75;;;4.60;67.10
72308;BME280;60257;42.638;23.376;2022-11-25T05:38:43;94527.91;;;4.62;66.66
72308;BME280;60257;42.638;23.376;2022-11-25T05:41:09;94511.72;;;4.49;66.69
72308;BME280;60257;42.638;23.376;2022-11-25T05:43:35;94544.84;;;4.68;66.15
72308;BME280;60257;42.638;23.376;2022-11-25T05:46:07;94535.00;;;4.81;65.98
72308;BME280;60257;42.638;23.376;2022-11-25T05:48:33;94524.88;;;4.73;65.88
72308;BME280;60257;42.638;23.376;2022-11-25T05:51:00;94536.13;;;4.80;65.94
72308;BME280;60257;42.638;23.376;2022-11-25T05:53:26;94537.28;;;4.87;65.72
72308;BME280;60257;42.638;23.376;2022-11-25T05:55:56;94558.69;;;4.89;65.34
72308;BME280;60257;42.638;23.376;2022-11-25T05:58:23;94555.03;;;4.93;65.38
72308;BME280;60257;42.638;23.376;2022-11-25T06:00:49;94578.53;;;4.98;65.03
72308;BME280;60257;42.638;23.376;2022-11-25T06:03:15;94554.09;;;4.98;64.65
72308;BME280;60257;42.638;23.376;2022-11-25T06:05:41;94574.91;;;5.11;64.67
72308;BME280;60257;42.638;23.376;2022-11-25T06:08:07;94561.19;;;5.16;63.95
72308;BME280;60257;42.638;23.376;2022-11-25T06:10:32;94573.34;;;5.19;63.99
72308;BME280;60257;42.638;23.376;2022-11-25T06:12:58;94585.47;;;5.13;63.56
72308;BME280;60257;42.638;23.376;2022-11-25T06:15:24;94597.50;;;5.20;63.48
72308;BME280;60257;42.638;23.376;2022-11-25T06:17:49;94581.50;;;5.19;64.08
72308;BME280;60257;42.638;23.376;2022-11-25T06:20:15;94575.44;;;5.22;63.02
72308;BME280;60257;42.638;23.376;2022-11-25T06:22:41;94584.69;;;5.21;63.23
72308;BME280;60257;42.638;23.376;2022-11-25T06:25:07;94590.44;;;5.19;63.55
72308;BME280;60257;42.638;23.376;2022-11-25T06:27:33;94606.59;;;5.16;63.18
72308;BME280;60257;42.638;23.376;2022-11-25T06:29:58;94592.63;;;5.00;63.24
72308;BME280;60257;42.638;23.376;2022-11-25T06:32:24;94594.63;;;5.17;63.62
72308;BME280;60257;42.638;23.376;2022-11-25T06:34:50;94610.63;;;5.27;63.41
72308;BME280;60257;42.638;23.376;2022-11-25T06:37:15;94589.81;;;5.22;62.99
72308;BME280;60257;42.638;23.376;2022-11-25T06:39:40;94626.78;;;5.23;62.69
72308;BME280;60257;42.638;23.376;2022-11-25T06:42:06;94611.13;;;5.29;62.54
72308;BME280;60257;42.638;23.376;2022-11-25T06:44:31;94619.31;;;5.37;61.97
72308;BME280;60257;42.638;23.376;2022-11-25T06:46:57;94622.19;;;5.32;62.04
72308;BME280;60257;42.638;23.376;2022-11-25T06:49:22;94633.56;;;5.43;61.82
72308;BME280;60257;42.638;23.376;2022-11-25T06:51:49;94648.25;;;5.33;62.11
72308;BME280;60257;42.638;23.376;2022-11-25T06:54:14;94639.59;;;5.31;62.30
72308;BME280;60257;42.638;23.376;2022-11-25T06:56:40;94647.16;;;5.43;61.85
72308;BME280;60257;42.638;23.376;2022-11-25T06:59:06;94656.75;;;5.40;62.28
72308;BME280;60257;42.638;23.376;2022-11-25T07:01:31;94648.09;;;5.38;62.32
72308;BME280;60257;42.638;23.376;2022-11-25T07:03:59;94652.94;;;5.41;62.71
72308;BME280;60257;42.638;23.376;2022-11-25T07:06:26;94643.84;;;5.55;62.43
72308;BME280;60257;42.638;23.376;2022-11-25T07:08:51;94639.84;;;5.61;61.76
72308;BME280;60257;42.638;23.376;2022-11-25T07:11:23;94645.75;;;5.54;61.86
72308;BME280;60257;42.638;23.376;2022-11-25T07:13:54;94646.28;;;5.65;61.86
72308;BME280;60257;42.638;23.376;2022-11-25T07:16:20;94653.66;;;5.81;61.42
72308;BME280;60257;42.638;23.376;2022-11-25T07:18:46;94640.97;;;5.60;61.22
72308;BME280;60257;42.638;23.376;2022-11-25T07:21:15;94642.41;;;5.57;61.56
72308;BME280;60257;42.638;23.376;2022-11-25T07:23:42;94645.28;;;5.61;61.77
72308;BME280;60257;42.638;23.376;2022-11-25T07:26:11;94638.44;;;5.63;61.76
72308;BME280;60257;42.638;23.376;2022-11-25T07:28:38;94642.09;;;5.67;61.64
72308;BME280;60257;42.638;23.376;2022-11-25T07:31:25;94650.41;;;5.62;61.48
72308;BME280;60257;42.638;23.376;2022-11-25T07:33:56;94666.44;;;5.64;61.32
72308;BME280;60257;42.638;23.376;2022-11-25T07:36:22;94657.13;;;5.56;61.64
72308;BME280;60257;42.638;23.376;2022-11-25T07:38:48;94652.66;;;5.60;61.96
72308;BME280;60257;42.638;23.376;2022-11-25T07:41:23;94646.41;;;5.60;61.41
72308;BME280;60257;42.638;23.376;2022-11-25T07:43:51;94659.84;;;5.56;61.59
72308;BME280;60257;42.638;23.376;2022-11-25T07:46:37;94662.69;;;5.51;62.41
72308;BME280;60257;42.638;23.376;2022-11-25T07:49:15;94664.16;;;5.49;61.75
72308;BME280;60257;42.638;23.376;2022-11-25T07:51:52;94659.16;;;5.51;62.12
72308;BME280;60257;42.638;23.376;2022-11-25T07:54:18;94663.38;;;5.57;61.91
72308;BME280;60257;42.638;23.376;2022-11-25T07:56:44;94687.81;;;5.48;61.70
72308;BME280;60257;42.638;23.376;2022-11-25T07:59:15;94689.91;;;5.51;61.64
72308;BME280;60257;42.638;23.376;2022-11-25T08:01:41;94689.91;;;5.51;61.61
72308;BME280;60257;42.638;23.376;2022-11-25T08:04:09;94686.41;;;5.59;61.10
72308;BME280;60257;42.638;23.376;2022-11-25T08:06:40;94671.53;;;5.57;61.42
72308;BME280;60257;42.638;23.376;2022-11-25T08:09:08;94683.88;;;5.63;61.07
72308;BME280;60257;42.638;23.376;2022-11-25T08:11:34;94679.59;;;5.79;60.93
72308;BME280;60257;42.638;23.376;2022-11-25T08:14:00;94692.13;;;5.89;60.13
72308;BME280;60257;42.638;23.376;2022-11-25T08:16:27;94700.81;;;5.99;59.74
72308;BME280;60257;42.638;23.376;2022-11-25T08:18:59;94681.41;;;5.92;60.08
72308;BME280;60257;42.638;23.376;2022-11-25T08:21:25;94679.81;;;5.91;59.90
72308;BME280;60257;42.638;23.376;2022-11-25T08:23:51;94686.09;;;6.09;58.97
72308;BME280;60257;42.638;23.376;2022-11-25T08:26:20;94696.66;;;6.10;59.63
72308;BME280;60257;42.638;23.376;2022-11-25T08:28:46;94703.53;;;6.08;59.88
72308;BME280;60257;42.638;23.376;2022-11-25T08:31:16;94698.13;;;6.16;59.57
72308;BME280;60257;42.638;23.376;2022-11-25T08:33:42;94701.78;;;6.12;59.51
72308;BME280;60257;42.638;23.376;2022-11-25T08:36:08;94698.13;;;6.25;58.88
72308;BME280;60257;42.638;23.376;2022-11-25T08:38:34;94711.25;;;6.23;59.18
72308;BME280;60257;42.638;23.376;2022-11-25T08:41:00;94692.19;;;6.14;59.61
72308;BME280;60257;42.638;23.376;2022-11-25T08:43:27;94695.38;;;6.16;59.71
72308;BME280;60257;42.638;23.376;2022-11-25T08:45:52;94697.00;;;6.17;59.86
72308;BME280;60257;42.638;23.376;2022-11-25T08:48:19;94695.72;;;6.24;59.93
72308;BME280;60257;42.638;23.376;2022-11-25T08:50:48;94714.16;;;6.44;60.15
72308;BME280;60257;42.638;23.376;2022-11-25T08:53:15;94698.94;;;6.34;59.47
72308;BME280;60257;42.638;23.376;2022-11-25T08:55:41;94701.50;;;6.56;59.77
72308;BME280;60257;42.638;23.376;2022-11-25T08:58:07;94699.91;;;6.55;58.77
72308;BME280;60257;42.638;23.376;2022-11-25T09:00:41;94703.41;;;6.39;58.43
72308;BME280;60257;42.638;23.376;2022-11-25T09:03:07;94698.16;;;6.42;59.06
72308;BME280;60257;42.638;23.376;2022-11-25T09:05:33;94706.16;;;6.47;59.10
72308;BME280;60257;42.638;23.376;2022-11-25T09:08:04;94698.00;;;6.56;58.87
72308;BME280;60257;42.638;23.376;2022-11-25T09:10:31;94694.94;;;6.49;58.67
72308;BME280;60257;42.638;23.376;2022-11-25T09:12:57;94700.84;;;6.51;59.23
72308;BME280;60257;42.638;23.376;2022-11-25T09:15:23;94714.03;;;6.57;58.72
72308;BME280;60257;42.638;23.376;2022-11-25T09:17:48;94700.53;;;6.61;58.67
72308;BME280;60257;42.638;23.376;2022-11-25T09:20:21;94709.34;;;6.67;58.59
72308;BME280;60257;42.638;23.376;2022-11-25T09:22:46;94702.28;;;6.74;59.04
72308;BME280;60257;42.638;23.376;2022-11-25T09:25:12;94702.28;;;6.74;59.38
72308;BME280;60257;42.638;23.376;2022-11-25T09:27:37;94708.72;;;6.70;58.93
72308;BME280;60257;42.638;23.376;2022-11-25T09:30:03;94707.59;;;6.71;59.11
72308;BME280;60257;42.638;23.376;2022-11-25T09:32:29;94698.94;;;6.77;58.31
72308;BME280;60257;42.638;23.376;2022-11-25T09:34:54;94694.13;;;6.74;58.55
72308;BME280;60257;42.638;23.376;2022-11-25T09:37:20;94703.75;;;6.80;58.29
72308;BME280;60257;42.638;23.376;2022-11-25T09:39:45;94699.91;;;6.73;58.89
72308;BME280;60257;42.638;23.376;2022-11-25T09:42:28;94718.00;;;6.69;58.54
72308;BME280;60257;42.638;23.376;2022-11-25T09:45:21;94697.81;;;6.87;58.90
72308;BME280;60257;42.638;23.376;2022-11-25T09:56:17;94711.09;;;6.97;57.65
72308;BME280;60257;42.638;23.376;2022-11-25T09:58:51;94705.81;;;7.01;57.58
72308;BME280;60257;42.638;23.376;2022-11-25T10:01:21;94705.16;;;7.12;57.26
72308;BME280;60257;42.638;23.376;2022-11-25T10:03:54;94715.56;;;7.10;57.16
72308;BME280;60257;42.638;23.376;2022-11-25T10:06:26;94710.13;;;7.02;56.50
72308;BME280;60257;42.638;23.376;2022-11-25T10:08:55;94700.97;;;6.97;56.67
72308;BME280;60257;42.638;23.376;2022-11-25T10:14:37;94703.97;;;7.30;56.79
72308;BME280;60257;42.638;23.376;2022-11-25T10:17:13;94696.28;;;7.24;56.80
72308;BME280;60257;42.638;23.376;2022-11-25T10:19:54;94696.44;;;7.27;56.45
72308;BME280;60257;42.638;23.376;2022-11-25T10:22:36;94709.13;;;7.23;56.61
72308;BME280;60257;42.638;23.376;2022-11-25T10:25:15;94708.50;;;7.18;56.75
72308;BME280;60257;42.638;23.376;2022-11-25T10:30:14;94696.00;;;7.00;57.12
72308;BME280;60257;42.638;23.376;2022-11-25T10:33:02;94700.97;;;7.06;57.37
72308;BME280;60257;42.638;23.376;2022-11-25T10:35:30;94701.25;;;7.22;56.63
72308;BME280;60257;42.638;23.376;2022-11-25T10:38:00;94666.66;;;7.05;56.06
72308;BME280;60257;42.638;23.376;2022-11-25T10:40:26;94701.75;;;7.24;56.25
72308;BME280;60257;42.638;23.376;2022-11-25T10:42:52;94704.25;;;7.38;55.53
72308;BME280;60257;42.638;23.376;2022-11-25T10:45:22;94706.91;;;7.00;56.21
72308;BME280;60257;42.638;23.376;2022-11-25T10:48:03;94701.63;;;7.12;56.27
72308;BME280;60257;42.638;23.376;2022-11-25T10:50:47;94705.78;;;7.09;55.87
72308;BME280;60257;42.638;23.376;2022-11-25T10:53:25;94722.28;;;7.21;55.36
72308;BME280;60257;42.638;23.376;2022-11-25T10:56:09;94722.56;;;7.28;55.30
72308;BME280;60257;42.638;23.376;2022-11-25T10:58:36;94717.59;;;7.30;55.01
72308;BME280;60257;42.638;23.376;2022-11-25T11:03:37;94732.66;;;7.45;54.84
72308;BME280;60257;42.638;23.376;2022-11-25T11:06:02;94720.78;;;7.50;54.64
72308;BME280;60257;42.638;23.376;2022-11-25T11:08:39;94716.16;;;7.80;53.94
72308;BME280;60257;42.638;23.376;2022-11-25T11:11:16;94728.69;;;7.81;53.51
72308;BME280;60257;42.638;23.376;2022-11-25T11:13:43;94739.94;;;7.79;53.74
72308;BME280;60257;42.638;23.376;2022-11-25T11:16:33;94728.41;;;7.73;54.25
72308;BME280;60257;42.638;23.376;2022-11-25T11:19:00;94711.28;;;7.94;54.34
72308;BME280;60257;42.638;23.376;2022-11-25T11:21:36;94726.09;;;7.84;54.28
72308;BME280;60257;42.638;23.376;2022-11-25T11:24:23;94711.50;;;7.80;54.89
72308;BME280;60257;42.638;23.376;2022-11-25T11:27:23;94733.38;;;7.71;54.73
72308;BME280;60257;42.638;23.376;2022-11-25T11:30:08;94717.84;;;7.63;55.03
72308;BME280;60257;42.638;23.376;2022-11-25T11:32:34;94724.63;;;7.49;55.05
72308;BME280;60257;42.638;23.376;2022-11-25T11:35:20;94723.78;;;7.65;55.05
72308;BME280;60257;42.638;23.376;2022-11-25T11:37:52;94732.16;;;7.52;55.14
72308;BME280;60257;42.638;23.376;2022-11-25T11:40:35;94736.78;;;7.51;55.20
72308;BME280;60257;42.638;23.376;2022-11-25T11:50:44;94733.53;;;7.20;56.90
72308;BME280;60257;42.638;23.376;2022-11-25T12:03:56;94758.09;;;6.94;57.67
72308;BME280;60257;42.638;23.376;2022-11-25T12:06:26;94739.94;;;7.07;57.18
72308;BME280;60257;42.638;23.376;2022-11-25T12:08:59;94735.78;;;7.01;58.04
72308;BME280;60257;42.638;23.376;2022-11-25T12:11:32;94743.16;;;6.91;58.52
72308;BME280;60257;42.638;23.376;2022-11-25T12:14:18;94740.31;;;6.97;58.00
72308;BME280;60257;42.638;23.376;2022-11-25T12:16:51;94740.25;;;7.05;58.38
72308;BME280;60257;42.638;23.376;2022-11-25T12:19:26;94743.03;;;6.88;58.42
72308;BME280;60257;42.638;23.376;2022-11-25T12:21:55;94741.75;;;6.85;59.18
72308;BME280;60257;42.638;23.376;2022-11-25T12:24:45;94752.81;;;6.89;58.90
72308;BME280;60257;42.638;23.376;2022-11-25T12:27:22;94761.13;;;6.84;58.84
72308;BME280;60257;42.638;23.376;2022-11-25T12:32:52;94756.00;;;6.82;58.75
72308;BME280;60257;42.638;23.376;2022-11-25T12:38:04;94761.78;;;6.81;58.65
72308;BME280;60257;42.638;23.376;2022-11-25T12:40:41;94735.16;;;6.69;59.09
72308;BME280;60257;42.638;23.376;2022-11-25T12:45:38;94728.44;;;6.75;59.22
72308;BME280;60257;42.638;23.376;2022-11-25T12:48:08;94732.75;;;6.68;58.71
72308;BME280;60257;42.638;23.376;2022-11-25T12:51:01;94725.25;;;6.73;58.61
72308;BME280;60257;42.638;23.376;2022-11-25T12:56:15;94729.38;;;6.53;59.53
72308;BME280;60257;42.638;23.376;2022-11-25T12:59:04;94729.06;;;6.46;59.59
72308;BME280;60257;42.638;23.376;2022-11-25T13:01:49;94731.00;;;6.46;60.16
72308;BME280;60257;42.638;23.376;2022-11-25T13:07:26;94725.06;;;6.61;59.52
72308;BME280;60257;42.638;23.376;2022-11-25T13:15:30;94716.25;;;6.55;59.37
72308;BME280;60257;42.638;23.376;2022-11-25T13:18:02;94731.00;;;6.63;59.00
72308;BME280;60257;42.638;23.376;2022-11-25T13:25:26;94702.16;;;6.53;59.18
72308;BME280;60257;42.638;23.376;2022-11-25T13:41:45;94720.28;;;6.49;58.98
72308;BME280;60257;42.638;23.376;2022-11-25T13:46:41;94741.88;;;6.37;58.80
72308;BME280;60257;42.638;23.376;2022-11-25T13:54:55;94740.72;;;6.21;59.52
72308;BME280;60257;42.638;23.376;2022-11-25T13:57:27;94736.88;;;6.22;59.93
72308;BME280;60257;42.638;23.376;2022-11-25T13:59:56;94733.19;;;6.18;60.10
72308;BME280;60257;42.638;23.376;2022-11-25T14:10:40;94769.38;;;6.10;60.24
72308;BME280;60257;42.638;23.376;2022-11-25T14:24:20;94776.97;;;5.91;60.97
72308;BME280;60257;42.638;23.376;2022-11-25T14:26:53;94786.38;;;5.85;61.41
72308;BME280;60257;42.638;23.376;2022-11-25T14:31:52;94767.94;;;5.81;61.58
72308;BME280;60257;42.638;23.376;2022-11-25T14:34:32;94770.66;;;5.81;61.68
72308;BME280;60257;42.638;23.376;2022-11-25T14:40:51;94769.72;;;5.77;61.87
72308;BME280;60257;42.638;23.376;2022-11-25T14:42:52;94777.38;;;5.75;61.89
72308;BME280;60257;42.638;23.376;2022-11-25T14:47:47;94765.84;;;5.70;62.14
72308;BME280;60257;42.638;23.376;2022-11-25T14:50:14;94777.63;;;5.65;62.36
72308;BME280;60257;42.638;23.376;2022-11-25T14:52:40;94773.50;;;5.68;62.24
72308;BME280;60257;42.638;23.376;2022-11-25T14:55:12;94773.34;;;5.64;62.31
72308;BME280;60257;42.638;23.376;2022-11-25T14:57:40;94773.00;;;5.57;62.20
72308;BME280;60257;42.638;23.376;2022-11-25T15:00:10;94769.16;;;5.67;62.09
72308;BME280;60257;42.638;23.376;2022-11-25T15:02:50;94769.66;;;5.69;61.97
72308;BME280;60257;42.638;23.376;2022-11-25T15:05:18;94775.59;;;5.71;61.47
72308;BME280;60257;42.638;23.376;2022-11-25T15:08:10;94770.78;;;5.68;61.54
72308;BME280;60257;42.638;23.376;2022-11-25T15:10:58;94763.25;;;5.65;61.30
72308;BME280;60257;42.638;23.376;2022-11-25T15:13:37;94766.34;;;5.72;61.24